Time;durP1;ratioP1;P1;durP2;ratioP2;P2;SDS_P1;SDS_P2;PMS_P1;PMS_P2;Temp;Humidity;BMP_temperature;BMP_pressure;BME280_temperature;BME280_humidity;BME280_pressure;Samples;Min_cycle;Max_cycle;Signal;HPM_P1;HPM_P2
2022/10/10 00:00:41;;;;;;;16.70;6.35;;;;;;;;;;4953640;28;20021;-62
2022/10/10 00:03:08;;;;;;;11.73;6.18;;;;;;;;;;4949606;28;20054;-62
2022/10/10 00:05:36;;;;;;;15.18;6.40;;;;;;;;;;4972571;28;20026;-61
2022/10/10 00:08:03;;;;;;;12.20;6.05;;;;;;;;;;4969395;28;20491;-61
2022/10/10 00:10:28;;;;;;;8.25;5.50;;;;;;;;;;4972290;28;20022;-61
2022/10/10 00:12:54;;;;;;;13.27;5.65;;;;;;;;;;4987625;28;20513;-61
2022/10/10 00:15:20;;;;;;;9.82;5.43;;;;;;;;;;4973049;28;20096;-61
2022/10/10 00:17:46;;;;;;;10.30;5.88;;;;;;;;;;4969036;28;20038;-60
2022/10/10 00:20:14;;;;;;;11.90;6.43;;;;;;;;;;4972354;28;20370;-60
2022/10/10 00:22:40;;;;;;;9.77;5.63;;;;;;;;;;4971709;28;20393;-60
2022/10/10 00:25:07;;;;;;;13.45;6.10;;;;;;;;;;4973011;28;20027;-61
2022/10/10 00:27:33;;;;;;;11.40;5.85;;;;;;;;;;4972257;28;20034;-61
2022/10/10 00:30:00;;;;;;;17.23;6.85;;;;;;;;;;4973106;28;20397;-62
2022/10/10 00:32:26;;;;;;;14.95;7.70;;;;;;;;;;4969591;28;20105;-60
2022/10/10 00:34:52;;;;;;;11.50;5.60;;;;;;;;;;4960384;28;20035;-60
2022/10/10 00:37:18;;;;;;;15.48;6.57;;;;;;;;;;4966281;28;20042;-60
2022/10/10 00:39:44;;;;;;;13.57;7.15;;;;;;;;;;4965611;28;20101;-60
2022/10/10 00:42:15;;;;;;;13.07;6.85;;;;;;;;;;4969915;28;21884;-60
2022/10/10 00:44:42;;;;;;;9.05;6.35;;;;;;;;;;4973075;28;20035;-60
2022/10/10 00:47:08;;;;;;;13.00;7.07;;;;;;;;;;4973037;28;20026;-60
2022/10/10 00:49:38;;;;;;;11.90;7.45;;;;;;;;;;4973208;28;20042;-60
2022/10/10 00:52:05;;;;;;;16.00;7.45;;;;;;;;;;4973105;28;20038;-63
2022/10/10 00:54:32;;;;;;;16.02;7.68;;;;;;;;;;4965818;28;20030;-60
2022/10/10 00:57:18;;;;;;;14.68;7.82;;;;;;;;;;4973363;28;20162;-61
2022/10/10 00:59:45;;;;;;;17.10;8.05;;;;;;;;;;4963450;28;20043;-60
2022/10/10 01:02:11;;;;;;;16.77;7.80;;;;;;;;;;4966878;28;20027;-60
2022/10/10 01:04:39;;;;;;;14.57;7.78;;;;;;;;;;4972492;28;20038;-61
2022/10/10 01:07:32;;;;;;;21.40;7.55;;;;;;;;;;4972218;28;20023;-60
2022/10/10 01:10:10;;;;;;;12.93;6.88;;;;;;;;;;4971870;28;20050;-62
2022/10/10 01:12:59;;;;;;;15.20;6.75;;;;;;;;;;4972826;28;20148;-60
2022/10/10 01:15:31;;;;;;;9.48;5.88;;;;;;;;;;4973003;28;20380;-61
2022/10/10 01:18:24;;;;;;;18.02;6.70;;;;;;;;;;4972747;28;20389;-60
2022/10/10 01:21:09;;;;;;;13.90;5.97;;;;;;;;;;4969551;28;20051;-60
2022/10/10 01:24:06;;;;;;;12.07;6.20;;;;;;;;;;4965944;28;20075;-63
2022/10/10 01:26:47;;;;;;;11.93;6.07;;;;;;;;;;4983773;28;20039;-61
2022/10/10 01:29:17;;;;;;;8.43;5.88;;;;;;;;;;4976248;28;20097;-60
2022/10/10 01:31:46;;;;;;;11.07;5.78;;;;;;;;;;4976139;28;20125;-60
2022/10/10 01:34:32;;;;;;;13.57;6.53;;;;;;;;;;4976385;28;20037;-60
2022/10/10 01:37:04;;;;;;;11.25;6.38;;;;;;;;;;4976505;28;20054;-60
2022/10/10 01:39:41;;;;;;;13.63;6.97;;;;;;;;;;4976439;28;20114;-60
2022/10/10 01:42:22;;;;;;;11.45;6.88;;;;;;;;;;4975702;28;20034;-60
2022/10/10 01:44:52;;;;;;;9.27;6.68;;;;;;;;;;4976228;28;20023;-60
2022/10/10 01:47:20;;;;;;;14.40;7.00;;;;;;;;;;4976492;28;20030;-60
2022/10/10 01:49:49;;;;;;;9.45;6.50;;;;;;;;;;4991751;28;20035;-62
2022/10/10 01:52:40;;;;;;;12.15;6.00;;;;;;;;;;4976440;28;20030;-61
2022/10/10 01:55:28;;;;;;;12.00;7.15;;;;;;;;;;4975924;28;20572;-61
2022/10/10 01:57:56;;;;;;;11.32;6.63;;;;;;;;;;4976449;28;20113;-62
2022/10/10 02:00:22;;;;;;;10.13;6.65;;;;;;;;;;4975979;28;20483;-62
2022/10/10 02:02:58;;;;;;;14.60;7.45;;;;;;;;;;4975852;28;20119;-62
2022/10/10 02:05:39;;;;;;;13.40;7.40;;;;;;;;;;4976188;28;20392;-61
2022/10/10 02:08:12;;;;;;;14.15;7.20;;;;;;;;;;4975783;28;20085;-60
2022/10/10 02:10:47;;;;;;;12.70;7.40;;;;;;;;;;4975497;28;20039;-63
2022/10/10 02:13:15;;;;;;;9.90;6.78;;;;;;;;;;4976059;28;20041;-64
2022/10/10 02:15:47;;;;;;;15.55;7.93;;;;;;;;;;4975291;28;20085;-63
2022/10/10 02:18:17;;;;;;;12.68;6.93;;;;;;;;;;4974360;28;20114;-61
2022/10/10 02:20:44;;;;;;;13.07;7.30;;;;;;;;;;4975957;28;20070;-61
2022/10/10 02:23:14;;;;;;;13.68;7.40;;;;;;;;;;4975545;28;20023;-62
2022/10/10 02:25:43;;;;;;;14.13;7.82;;;;;;;;;;4967592;28;20065;-61
2022/10/10 02:28:20;;;;;;;10.70;8.15;;;;;;;;;;4974733;28;20501;-62
2022/10/10 02:30:49;;;;;;;13.57;9.48;;;;;;;;;;4975598;28;20043;-62
2022/10/10 02:33:25;;;;;;;19.38;9.15;;;;;;;;;;4975382;28;20034;-61
2022/10/10 02:35:53;;;;;;;15.65;7.75;;;;;;;;;;4974576;28;20039;-62
2022/10/10 02:38:19;;;;;;;8.15;5.32;;;;;;;;;;4974144;28;20454;-63
2022/10/10 02:40:47;;;;;;;8.27;4.70;;;;;;;;;;4984453;28;20035;-62
2022/10/10 02:43:14;;;;;;;12.32;6.28;;;;;;;;;;4954776;28;20062;-62
2022/10/10 02:45:42;;;;;;;8.68;5.65;;;;;;;;;;4955998;29;20035;-62
2022/10/10 02:48:08;;;;;;;12.57;4.40;;;;;;;;;;4956885;28;20403;-61
2022/10/10 02:50:34;;;;;;;11.00;4.80;;;;;;;;;;4956959;28;20150;-62
2022/10/10 02:53:00;;;;;;;11.77;5.13;;;;;;;;;;4956798;28;20098;-61
2022/10/10 02:55:26;;;;;;;9.27;4.88;;;;;;;;;;4970493;28;20104;-61
2022/10/10 02:57:52;;;;;;;10.68;5.05;;;;;;;;;;4975499;28;20066;-61
2022/10/10 03:00:19;;;;;;;14.20;5.68;;;;;;;;;;4974850;28;20035;-61
2022/10/10 03:02:45;;;;;;;9.18;4.70;;;;;;;;;;4975846;28;20030;-62
2022/10/10 03:05:12;;;;;;;8.35;4.60;;;;;;;;;;4976019;28;20035;-61
2022/10/10 03:07:39;;;;;;;12.25;4.88;;;;;;;;;;4975423;28;20050;-61
2022/10/10 03:10:06;;;;;;;8.73;5.53;;;;;;;;;;4975759;28;20037;-61
2022/10/10 03:12:33;;;;;;;11.75;6.35;;;;;;;;;;4975732;28;20089;-62
2022/10/10 03:14:59;;;;;;;15.30;6.97;;;;;;;;;;4975918;28;20039;-62
2022/10/10 03:17:25;;;;;;;9.15;5.78;;;;;;;;;;4975197;28;20086;-61
2022/10/10 03:19:50;;;;;;;10.20;5.72;;;;;;;;;;4975926;28;20511;-61
2022/10/10 03:22:16;;;;;;;17.30;7.63;;;;;;;;;;4976630;28;20106;-61
2022/10/10 03:24:42;;;;;;;18.30;7.28;;;;;;;;;;4978031;28;20058;-62
2022/10/10 03:27:08;;;;;;;14.50;7.15;;;;;;;;;;4976398;28;20050;-61
2022/10/10 03:29:34;;;;;;;12.02;6.70;;;;;;;;;;4975525;28;20090;-61
2022/10/10 03:32:00;;;;;;;11.20;5.72;;;;;;;;;;4975285;28;20058;-62
2022/10/10 03:34:26;;;;;;;17.38;7.70;;;;;;;;;;4975389;28;20043;-61
2022/10/10 03:36:52;;;;;;;18.17;7.93;;;;;;;;;;4975008;28;20031;-61
2022/10/10 03:39:18;;;;;;;26.73;8.55;;;;;;;;;;4956229;28;20039;-62
2022/10/10 03:41:44;;;;;;;16.50;7.60;;;;;;;;;;4955236;28;20474;-62
2022/10/10 03:44:10;;;;;;;13.25;7.40;;;;;;;;;;4955175;28;20043;-62
2022/10/10 03:46:35;;;;;;;18.25;7.82;;;;;;;;;;4955224;28;20024;-62
2022/10/10 03:49:01;;;;;;;18.98;7.80;;;;;;;;;;4954044;28;20035;-61
2022/10/10 03:51:27;;;;;;;11.52;7.07;;;;;;;;;;4955410;28;20038;-63
2022/10/10 03:53:53;;;;;;;15.95;8.65;;;;;;;;;;4955833;29;20319;-62
2022/10/10 03:56:19;;;;;;;14.05;8.25;;;;;;;;;;4955444;28;20027;-62
2022/10/10 03:58:45;;;;;;;13.60;7.28;;;;;;;;;;4974778;28;20031;-61
2022/10/10 04:01:11;;;;;;;14.13;7.55;;;;;;;;;;4974339;28;20023;-61
2022/10/10 04:03:37;;;;;;;23.20;9.15;;;;;;;;;;4974822;28;20386;-62
2022/10/10 04:06:03;;;;;;;15.70;8.90;;;;;;;;;;4974494;28;20026;-60
2022/10/10 04:08:29;;;;;;;23.52;10.57;;;;;;;;;;4974200;28;20031;-60
2022/10/10 04:10:55;;;;;;;21.42;11.80;;;;;;;;;;4974700;28;20060;-60
2022/10/10 04:13:24;;;;;;;31.00;11.85;;;;;;;;;;4974782;28;20085;-61
2022/10/10 04:15:54;;;;;;;24.67;10.80;;;;;;;;;;4973930;28;20106;-61
2022/10/10 04:18:20;;;;;;;15.52;10.40;;;;;;;;;;4988840;28;20082;-61
2022/10/10 04:20:46;;;;;;;18.90;11.00;;;;;;;;;;4973072;28;20113;-62
2022/10/10 04:23:12;;;;;;;22.52;11.43;;;;;;;;;;4974098;28;20110;-61
2022/10/10 04:25:38;;;;;;;23.95;11.32;;;;;;;;;;4974233;28;20059;-61
2022/10/10 04:28:04;;;;;;;18.70;11.55;;;;;;;;;;4974241;28;20030;-62
2022/10/10 04:30:33;;;;;;;18.90;11.43;;;;;;;;;;4974115;28;20039;-62
2022/10/10 04:32:59;;;;;;;19.90;10.25;;;;;;;;;;4974228;28;20402;-61
2022/10/10 04:35:25;;;;;;;17.67;10.05;;;;;;;;;;4974154;28;20497;-61
2022/10/10 04:37:52;;;;;;;16.88;10.65;;;;;;;;;;4973859;28;20117;-61
2022/10/10 04:40:18;;;;;;;17.65;10.15;;;;;;;;;;4973748;28;20544;-62
2022/10/10 04:42:44;;;;;;;20.63;10.70;;;;;;;;;;4973823;28;20034;-61
2022/10/10 04:45:10;;;;;;;16.83;9.02;;;;;;;;;;4973401;28;20033;-61
2022/10/10 04:47:36;;;;;;;22.48;10.88;;;;;;;;;;4973702;28;20039;-62
2022/10/10 04:50:02;;;;;;;20.23;11.55;;;;;;;;;;4974157;28;20038;-64
2022/10/10 04:52:27;;;;;;;20.67;10.20;;;;;;;;;;4974108;28;20039;-64
2022/10/10 04:54:53;;;;;;;27.05;11.07;;;;;;;;;;4971845;28;20026;-64
2022/10/10 04:57:19;;;;;;;22.27;10.70;;;;;;;;;;4973261;28;20034;-64
2022/10/10 04:59:45;;;;;;;15.88;9.63;;;;;;;;;;4969636;28;20429;-63
2022/10/10 05:02:11;;;;;;;15.70;9.50;;;;;;;;;;4973302;28;20049;-63
2022/10/10 05:04:37;;;;;;;18.92;9.95;;;;;;;;;;4967444;28;20066;-63
2022/10/10 05:07:03;;;;;;;17.23;8.95;;;;;;;;;;4972933;28;20110;-64
2022/10/10 05:09:29;;;;;;;16.38;10.30;;;;;;;;;;4961518;28;20115;-64
2022/10/10 05:11:54;;;;;;;13.20;8.98;;;;;;;;;;4959281;28;20070;-64
2022/10/10 05:14:20;;;;;;;21.17;9.85;;;;;;;;;;4968916;28;20023;-64
2022/10/10 05:16:46;;;;;;;17.40;9.82;;;;;;;;;;4953438;28;20094;-63
2022/10/10 05:19:12;;;;;;;17.30;9.50;;;;;;;;;;4953870;28;20054;-64
2022/10/10 05:21:38;;;;;;;18.55;8.75;;;;;;;;;;4953515;28;20035;-65
2022/10/10 05:24:04;;;;;;;20.63;8.00;;;;;;;;;;4953403;28;20035;-64
2022/10/10 05:26:30;;;;;;;14.02;7.75;;;;;;;;;;4954032;28;20047;-63
2022/10/10 05:28:56;;;;;;;18.42;7.35;;;;;;;;;;4953297;28;20090;-63
2022/10/10 05:31:22;;;;;;;15.80;6.97;;;;;;;;;;4953522;28;20047;-63
2022/10/10 05:33:48;;;;;;;21.60;7.47;;;;;;;;;;4954256;28;20062;-63
2022/10/10 05:36:14;;;;;;;19.25;7.32;;;;;;;;;;4954156;28;20043;-63
2022/10/10 05:38:40;;;;;;;19.45;7.88;;;;;;;;;;4953692;28;20027;-63
2022/10/10 05:41:08;;;;;;;14.55;7.50;;;;;;;;;;4953152;28;20503;-64
2022/10/10 05:43:34;;;;;;;16.17;7.32;;;;;;;;;;4954191;28;20390;-64
2022/10/10 05:46:01;;;;;;;20.05;7.80;;;;;;;;;;4954657;28;20027;-65
2022/10/10 05:48:27;;;;;;;20.10;7.63;;;;;;;;;;4955215;28;20095;-65
2022/10/10 05:50:58;;;;;;;16.77;7.45;;;;;;;;;;4954159;28;20099;-64
2022/10/10 05:53:26;;;;;;;18.85;7.20;;;;;;;;;;4954192;28;20031;-64
2022/10/10 05:55:52;;;;;;;21.75;7.05;;;;;;;;;;4953883;28;20458;-64
2022/10/10 05:58:19;;;;;;;17.65;7.68;;;;;;;;;;4953871;28;20035;-65
2022/10/10 06:00:46;;;;;;;18.05;8.10;;;;;;;;;;4953945;28;20070;-64
2022/10/10 06:03:15;;;;;;;19.00;7.75;;;;;;;;;;4953145;28;20437;-65
2022/10/10 06:05:47;;;;;;;17.70;7.30;;;;;;;;;;4953822;28;20035;-64
2022/10/10 06:08:14;;;;;;;22.67;7.40;;;;;;;;;;4954389;28;20042;-64
2022/10/10 06:10:43;;;;;;;23.25;8.30;;;;;;;;;;4972925;28;20478;-66
2022/10/10 06:13:10;;;;;;;26.67;8.13;;;;;;;;;;4975075;28;20038;-65
2022/10/10 06:15:36;;;;;;;19.42;7.00;;;;;;;;;;4968589;28;20574;-65
2022/10/10 06:18:03;;;;;;;20.65;6.63;;;;;;;;;;4956957;28;20134;-65
2022/10/10 06:20:29;;;;;;;13.10;6.10;;;;;;;;;;4957100;28;20489;-65
2022/10/10 06:22:54;;;;;;;13.52;5.68;;;;;;;;;;4956894;29;20035;-66
2022/10/10 06:25:20;;;;;;;14.20;6.45;;;;;;;;;;4972837;28;20023;-65
2022/10/10 06:27:46;;;;;;;16.75;6.32;;;;;;;;;;4972634;28;20031;-65
2022/10/10 06:30:12;;;;;;;13.60;5.75;;;;;;;;;;4958219;28;20371;-66
2022/10/10 06:32:38;;;;;;;9.20;5.40;;;;;;;;;;4975116;28;20533;-67
2022/10/10 06:35:04;;;;;;;12.90;5.22;;;;;;;;;;4976071;28;20110;-68
2022/10/10 06:37:32;;;;;;;16.60;5.10;;;;;;;;;;4975982;28;20105;-66
2022/10/10 06:39:58;;;;;;;14.48;5.45;;;;;;;;;;4975784;28;20390;-68
2022/10/10 06:42:24;;;;;;;8.45;5.68;;;;;;;;;;4975648;28;20031;-67
2022/10/10 06:44:56;;;;;;;17.45;5.60;;;;;;;;;;4991220;28;20385;-65
2022/10/10 06:47:22;;;;;;;12.80;5.00;;;;;;;;;;4976018;28;20043;-64
2022/10/10 06:49:48;;;;;;;15.32;5.20;;;;;;;;;;4976056;28;20388;-64
2022/10/10 06:52:14;;;;;;;10.55;5.55;;;;;;;;;;4976223;28;20117;-65
2022/10/10 06:54:39;;;;;;;13.95;5.30;;;;;;;;;;4976458;28;20035;-66
2022/10/10 06:57:05;;;;;;;10.38;4.90;;;;;;;;;;4978028;28;20047;-64
2022/10/10 06:59:31;;;;;;;8.05;4.63;;;;;;;;;;4976324;28;20031;-65
2022/10/10 07:01:57;;;;;;;10.10;4.97;;;;;;;;;;4974556;28;20102;-64
2022/10/10 07:04:23;;;;;;;8.20;4.53;;;;;;;;;;4969323;28;20027;-64
2022/10/10 07:06:49;;;;;;;8.48;5.25;;;;;;;;;;4956096;28;20930;-65
2022/10/10 07:09:16;;;;;;;7.45;4.93;;;;;;;;;;4957390;28;20026;-65
2022/10/10 07:11:44;;;;;;;6.30;4.50;;;;;;;;;;4971002;28;20043;-65
2022/10/10 07:14:12;;;;;;;10.13;4.60;;;;;;;;;;4954980;29;20070;-66
2022/10/10 07:16:39;;;;;;;13.32;5.50;;;;;;;;;;4955674;28;20046;-64
2022/10/10 07:19:05;;;;;;;8.73;4.95;;;;;;;;;;4955352;28;20029;-63
2022/10/10 07:21:31;;;;;;;6.25;4.40;;;;;;;;;;4961710;28;20034;-64
2022/10/10 07:23:57;;;;;;;6.80;4.35;;;;;;;;;;4974248;28;20105;-63
2022/10/10 07:26:26;;;;;;;11.07;4.57;;;;;;;;;;4974919;28;20125;-64
2022/10/10 07:28:52;;;;;;;6.78;4.50;;;;;;;;;;4975124;28;20018;-63
2022/10/10 07:31:18;;;;;;;8.60;5.40;;;;;;;;;;4971187;28;20089;-64
2022/10/10 07:33:47;;;;;;;11.43;5.25;;;;;;;;;;4955842;28;20039;-66
2022/10/10 07:36:13;;;;;;;8.55;4.70;;;;;;;;;;4955439;28;20500;-65
2022/10/10 07:38:39;;;;;;;8.00;4.75;;;;;;;;;;4955382;28;20027;-64
2022/10/10 07:41:07;;;;;;;7.18;4.57;;;;;;;;;;4956882;28;20532;-64
2022/10/10 07:43:33;;;;;;;11.35;4.82;;;;;;;;;;4974836;28;20094;-64
2022/10/10 07:45:59;;;;;;;6.07;3.83;;;;;;;;;;4974296;28;20042;-66
2022/10/10 07:48:24;;;;;;;11.07;4.53;;;;;;;;;;4973602;28;20061;-64
2022/10/10 07:50:50;;;;;;;8.93;3.88;;;;;;;;;;4974949;28;20070;-64
2022/10/10 07:53:16;;;;;;;11.38;5.15;;;;;;;;;;4974694;28;20505;-63
2022/10/10 07:55:43;;;;;;;9.77;4.22;;;;;;;;;;4974710;28;20065;-63
2022/10/10 07:58:10;;;;;;;8.85;4.55;;;;;;;;;;4974002;28;20462;-64
2022/10/10 08:00:39;;;;;;;10.27;5.32;;;;;;;;;;4974507;28;20046;-65
2022/10/10 08:03:06;;;;;;;11.52;5.43;;;;;;;;;;4974205;28;20038;-64
2022/10/10 08:05:32;;;;;;;7.70;4.85;;;;;;;;;;4974190;28;20049;-66
2022/10/10 08:07:58;;;;;;;13.65;6.90;;;;;;;;;;4957746;28;20031;-64
2022/10/10 08:10:27;;;;;;;9.93;5.80;;;;;;;;;;4961384;28;20035;-69
2022/10/10 08:12:53;;;;;;;10.88;5.85;;;;;;;;;;4974408;28;20102;-64
2022/10/10 08:15:19;;;;;;;11.32;6.63;;;;;;;;;;4963866;28;20134;-64
2022/10/10 08:17:45;;;;;;;9.02;6.07;;;;;;;;;;4954524;28;20031;-64
2022/10/10 08:20:11;;;;;;;8.93;5.70;;;;;;;;;;4954813;28;20043;-64
2022/10/10 08:22:36;;;;;;;8.82;5.15;;;;;;;;;;4954032;28;20027;-65
2022/10/10 08:25:03;;;;;;;9.75;5.38;;;;;;;;;;4954415;28;20118;-65
2022/10/10 08:27:28;;;;;;;9.82;5.68;;;;;;;;;;4954425;28;20078;-64
2022/10/10 08:29:54;;;;;;;12.15;5.90;;;;;;;;;;4954491;28;20031;-63
2022/10/10 08:32:20;;;;;;;14.27;5.93;;;;;;;;;;4954569;28;20553;-66
2022/10/10 08:34:46;;;;;;;9.65;5.80;;;;;;;;;;4954194;28;20470;-65
2022/10/10 08:37:12;;;;;;;14.52;6.10;;;;;;;;;;4954495;28;20415;-64
2022/10/10 08:39:37;;;;;;;11.23;5.78;;;;;;;;;;4954559;28;20035;-65
2022/10/10 08:42:03;;;;;;;9.70;6.07;;;;;;;;;;4954856;28;20465;-63
2022/10/10 08:44:39;;;;;;;9.88;5.70;;;;;;;;;;4954805;29;20036;-63
2022/10/10 08:47:22;;;;;;;10.73;4.63;;;;;;;;;;4955485;28;20513;-63
2022/10/10 08:49:56;;;;;;;8.43;4.97;;;;;;;;;;4971543;28;20089;-64
2022/10/10 08:52:47;;;;;;;8.35;4.93;;;;;;;;;;4973958;28;20035;-64
2022/10/10 08:55:26;;;;;;;8.93;4.53;;;;;;;;;;4973725;28;20034;-64
2022/10/10 08:58:03;;;;;;;5.70;3.92;;;;;;;;;;4988411;28;20125;-64
2022/10/10 09:00:37;;;;;;;8.30;4.47;;;;;;;;;;4972815;28;20395;-64
2022/10/10 09:03:18;;;;;;;13.10;4.90;;;;;;;;;;4973471;28;20532;-63
2022/10/10 09:06:09;;;;;;;11.57;3.78;;;;;;;;;;4973301;28;20039;-64
2022/10/10 09:09:11;;;;;;;8.02;4.20;;;;;;;;;;4973245;28;20450;-65
2022/10/10 09:12:02;;;;;;;4.57;3.33;;;;;;;;;;4973475;28;20134;-66
2022/10/10 09:14:32;;;;;;;7.50;3.40;;;;;;;;;;4956974;28;20474;-65
2022/10/10 09:16:58;;;;;;;6.32;3.60;;;;;;;;;;4953557;28;20494;-63
2022/10/10 09:19:59;;;;;;;8.70;3.72;;;;;;;;;;4953794;28;20038;-65
2022/10/10 09:22:31;;;;;;;7.13;4.25;;;;;;;;;;4925816;29;20028;-65
2022/10/10 09:25:29;;;;;;;6.60;3.33;;;;;;;;;;4950647;28;20071;-65
2022/10/10 09:28:09;;;;;;;5.95;3.30;;;;;;;;;;4967727;28;20178;-65
2022/10/10 09:30:39;;;;;;;5.18;3.33;;;;;;;;;;4973151;28;20497;-64
2022/10/10 09:33:32;;;;;;;5.38;3.00;;;;;;;;;;4973538;28;20462;-64
2022/10/10 09:36:03;;;;;;;10.32;3.63;;;;;;;;;;4973300;28;20037;-64
2022/10/10 09:38:41;;;;;;;12.10;4.03;;;;;;;;;;4972808;28;20121;-64
2022/10/10 09:41:30;;;;;;;11.55;4.60;;;;;;;;;;4954375;28;20082;-65
2022/10/10 09:43:58;;;;;;;6.63;3.53;;;;;;;;;;4954111;28;20475;-64
2022/10/10 09:46:25;;;;;;;8.40;3.70;;;;;;;;;;4954632;28;20442;-65
2022/10/10 09:48:53;;;;;;;7.43;3.97;;;;;;;;;;4957859;28;20061;-65
2022/10/10 09:51:19;;;;;;;11.27;3.92;;;;;;;;;;4957831;28;20076;-65
2022/10/10 09:53:47;;;;;;;10.75;4.00;;;;;;;;;;4974334;28;20094;-67
2022/10/10 09:56:26;;;;;;;20.90;5.20;;;;;;;;;;4972188;28;20030;-70
2022/10/10 09:58:54;;;;;;;8.35;3.95;;;;;;;;;;4973401;28;20470;-64
2022/10/10 10:01:22;;;;;;;7.72;3.70;;;;;;;;;;4974977;28;20035;-65
2022/10/10 10:04:13;;;;;;;10.27;3.70;;;;;;;;;;4976317;28;20039;-64
2022/10/10 10:06:46;;;;;;;10.60;4.00;;;;;;;;;;4975945;28;20030;-66
2022/10/10 10:09:29;;;;;;;;;;;;;;;;;;4976473;28;20380;-67
2022/10/10 10:11:56;;;;;;;5.57;3.65;;;;;;;;;;4975803;28;19925;-65
2022/10/10 10:14:35;;;;;;;8.73;3.63;;;;;;;;;;4976917;28;20381;-66
2022/10/10 10:17:15;;;;;;;8.30;3.60;;;;;;;;;;4975976;28;20310;-63
2022/10/10 10:19:43;;;;;;;7.80;3.15;;;;;;;;;;4976321;28;20544;-65
2022/10/10 10:22:29;;;;;;;9.10;3.67;;;;;;;;;;4976982;28;20485;-64
2022/10/10 10:24:55;;;;;;;5.60;3.40;;;;;;;;;;4976894;28;20043;-63
2022/10/10 10:27:23;;;;;;;11.85;3.70;;;;;;;;;;4974162;28;20034;-62
2022/10/10 10:29:51;;;;;;;9.98;3.45;;;;;;;;;;4975070;28;20042;-65
2022/10/10 10:32:26;;;;;;;7.93;3.33;;;;;;;;;;4974888;28;20105;-65
2022/10/10 10:35:33;;;;;;;7.25;3.42;;;;;;;;;;4976200;28;20039;-64
2022/10/10 10:38:27;;;;;;;4.85;3.20;;;;;;;;;;4954469;28;20127;-65
2022/10/10 10:41:21;;;;;;;11.23;3.45;;;;;;;;;;4954659;29;20041;-64
2022/10/10 10:44:05;;;;;;;7.05;3.63;;;;;;;;;;4973463;28;20050;-66
2022/10/10 10:46:31;;;;;;;10.18;3.75;;;;;;;;;;4976213;28;20031;-68
2022/10/10 10:49:06;;;;;;;6.93;3.38;;;;;;;;;;4976031;28;20031;-67
2022/10/10 10:51:35;;;;;;;9.55;3.60;;;;;;;;;;4976050;28;20046;-66
2022/10/10 10:54:19;;;;;;;4.32;3.30;;;;;;;;;;4976089;28;20035;-66
2022/10/10 10:56:44;;;;;;;7.22;3.47;;;;;;;;;;4975312;28;20046;-64
2022/10/10 10:59:26;;;;;;;6.97;3.78;;;;;;;;;;4975174;28;20085;-65
2022/10/10 11:01:57;;;;;;;6.47;3.90;;;;;;;;;;4975851;28;20110;-66
2022/10/10 11:04:57;;;;;;;7.15;3.83;;;;;;;;;;4975546;28;20054;-66
2022/10/10 11:07:24;;;;;;;10.27;3.60;;;;;;;;;;4975459;28;20031;-67
2022/10/10 11:09:50;;;;;;;6.10;3.50;;;;;;;;;;4975699;28;20113;-65
2022/10/10 11:12:35;;;;;;;5.30;3.45;;;;;;;;;;4975769;28;20493;-63
2022/10/10 11:15:04;;;;;;;8.07;3.50;;;;;;;;;;4975477;28;20094;-65
2022/10/10 11:17:36;;;;;;;5.53;3.80;;;;;;;;;;4973328;28;20443;-65
2022/10/10 11:20:17;;;;;;;6.30;3.92;;;;;;;;;;4962967;28;20089;-66
2022/10/10 11:23:15;;;;;;;6.78;4.05;;;;;;;;;;4974154;28;20031;-65
2022/10/10 11:25:46;;;;;;;7.45;4.20;;;;;;;;;;4924337;28;20048;-66
2022/10/10 11:28:14;;;;;;;6.78;3.85;;;;;;;;;;4970623;28;20482;-65
2022/10/10 11:30:47;;;;;;;7.88;4.00;;;;;;;;;;4972597;28;20073;-70
2022/10/10 11:33:19;;;;;;;5.95;3.78;;;;;;;;;;4966388;28;20031;-68
2022/10/10 11:35:53;;;;;;;8.40;3.88;;;;;;;;;;4964254;28;20034;-64
2022/10/10 11:38:29;;;;;;;6.88;4.05;;;;;;;;;;4973557;28;20042;-67
2022/10/10 11:41:08;;;;;;;5.85;3.53;;;;;;;;;;4989921;28;20119;-65
2022/10/10 11:43:46;;;;;;;4.60;3.60;;;;;;;;;;4974197;28;20027;-64
2022/10/10 11:46:43;;;;;;;6.97;3.75;;;;;;;;;;4955399;28;20051;-63
2022/10/10 11:49:21;;;;;;;7.00;4.15;;;;;;;;;;4968729;28;20030;-64
2022/10/10 11:51:57;;;;;;;8.88;4.13;;;;;;;;;;4973476;28;20449;-65
2022/10/10 11:54:51;;;;;;;7.72;3.72;;;;;;;;;;4974421;28;20027;-65
2022/10/10 11:57:38;;;;;;;8.20;3.55;;;;;;;;;;4974411;28;20035;-65
2022/10/10 12:00:09;;;;;;;6.28;3.60;;;;;;;;;;4973606;28;20362;-64
2022/10/10 12:02:39;;;;;;;9.05;3.58;;;;;;;;;;4974482;28;20100;-63
2022/10/10 12:05:06;;;;;;;7.00;4.28;;;;;;;;;;4973186;28;20030;-63
2022/10/10 12:07:39;;;;;;;7.43;3.47;;;;;;;;;;4972633;28;20027;-66
2022/10/10 12:10:38;;;;;;;6.10;3.97;;;;;;;;;;4970913;28;20047;-64
2022/10/10 12:13:33;;;;;;;10.05;3.92;;;;;;;;;;4958310;28;20129;-63
2022/10/10 12:16:14;;;;;;;8.80;4.03;;;;;;;;;;4966242;28;20405;-64
2022/10/10 12:18:51;;;;;;;6.68;3.72;;;;;;;;;;4962438;28;20035;-63
2022/10/10 12:21:19;;;;;;;5.78;3.88;;;;;;;;;;4974195;28;20034;-63
2022/10/10 12:23:48;;;;;;;9.82;4.28;;;;;;;;;;4974233;28;20111;-65
2022/10/10 12:26:16;;;;;;;8.10;3.47;;;;;;;;;;4972468;28;20042;-64
2022/10/10 12:29:02;;;;;;;11.65;3.70;;;;;;;;;;4972423;28;20444;-63
2022/10/10 12:31:32;;;;;;;10.20;4.00;;;;;;;;;;4954831;28;20059;-65
2022/10/10 12:34:12;;;;;;;7.18;3.72;;;;;;;;;;4984583;28;20158;-64
2022/10/10 12:36:38;;;;;;;6.78;3.78;;;;;;;;;;4973779;28;20043;-64
2022/10/10 12:39:05;;;;;;;5.55;3.45;;;;;;;;;;4965560;28;20110;-64
2022/10/10 12:41:53;;;;;;;7.22;4.03;;;;;;;;;;4954739;29;20031;-66
2022/10/10 12:44:23;;;;;;;7.35;3.60;;;;;;;;;;4962864;28;20537;-62
2022/10/10 12:47:29;;;;;;;6.68;3.40;;;;;;;;;;4973907;28;20045;-64
2022/10/10 12:50:03;;;;;;;5.50;3.85;;;;;;;;;;4933556;29;20122;-63
2022/10/10 12:52:35;;;;;;;5.20;4.10;;;;;;;;;;4932951;29;20039;-63
2022/10/10 12:55:07;;;;;;;6.20;3.70;;;;;;;;;;4956831;28;20457;-64
2022/10/10 12:57:44;;;;;;;6.35;3.58;;;;;;;;;;4973656;28;20045;-64
2022/10/10 13:00:22;;;;;;;6.00;3.53;;;;;;;;;;4973880;28;20073;-64
2022/10/10 13:02:58;;;;;;;6.78;4.05;;;;;;;;;;4973281;28;20031;-67
2022/10/10 13:05:30;;;;;;;6.13;3.75;;;;;;;;;;4968888;28;20058;-64
2022/10/10 13:08:01;;;;;;;7.00;3.83;;;;;;;;;;4973593;28;20389;-66
2022/10/10 13:10:28;;;;;;;6.32;3.67;;;;;;;;;;4972124;28;20295;-65
2022/10/10 13:13:02;;;;;;;6.20;3.55;;;;;;;;;;4966988;28;20122;-64
2022/10/10 13:15:29;;;;;;;4.75;3.50;;;;;;;;;;4973069;28;20034;-65
2022/10/10 13:17:55;;;;;;;9.02;3.80;;;;;;;;;;4961373;28;20082;-64
2022/10/10 13:20:32;;;;;;;11.95;3.50;;;;;;;;;;4973552;28;20103;-65
2022/10/10 13:23:03;;;;;;;5.32;3.28;;;;;;;;;;4976267;28;20051;-65
2022/10/10 13:25:30;;;;;;;4.43;2.90;;;;;;;;;;4976072;28;20058;-64
2022/10/10 13:27:56;;;;;;;10.38;3.45;;;;;;;;;;4976189;28;20066;-64
2022/10/10 13:30:24;;;;;;;6.43;3.58;;;;;;;;;;4970822;28;20109;-67
2022/10/10 13:32:52;;;;;;;9.77;3.63;;;;;;;;;;4975123;28;20031;-64
2022/10/10 13:35:28;;;;;;;7.03;3.13;;;;;;;;;;4976966;28;20019;-65
2022/10/10 13:37:57;;;;;;;6.43;3.08;;;;;;;;;;4975436;28;20037;-65
2022/10/10 13:40:24;;;;;;;6.00;3.30;;;;;;;;;;4976464;28;20449;-63
2022/10/10 13:42:51;;;;;;;5.45;3.50;;;;;;;;;;4971729;28;20562;-65
2022/10/10 13:45:42;;;;;;;10.93;3.45;;;;;;;;;;4974789;28;20018;-64
2022/10/10 13:48:24;;;;;;;5.75;3.67;;;;;;;;;;4973657;28;20039;-63
2022/10/10 13:50:54;;;;;;;6.55;3.60;;;;;;;;;;4976182;28;20117;-64
2022/10/10 13:53:26;;;;;;;6.90;3.72;;;;;;;;;;4976580;28;20039;-64
2022/10/10 13:55:58;;;;;;;8.70;4.15;;;;;;;;;;4970606;28;20034;-63
2022/10/10 13:58:26;;;;;;;5.63;3.53;;;;;;;;;;4976616;28;20375;-64
2022/10/10 14:00:58;;;;;;;5.65;3.25;;;;;;;;;;4971862;28;20031;-63
2022/10/10 14:03:25;;;;;;;5.13;3.63;;;;;;;;;;4989715;28;20073;-64
2022/10/10 14:05:51;;;;;;;4.80;3.88;;;;;;;;;;4973858;28;20030;-66
2022/10/10 14:08:20;;;;;;;4.65;3.28;;;;;;;;;;4968610;28;20419;-63
2022/10/10 14:11:03;;;;;;;7.53;3.33;;;;;;;;;;4972884;28;20027;-67
2022/10/10 14:13:32;;;;;;;6.20;3.80;;;;;;;;;;4968471;28;20038;-68
2022/10/10 14:16:18;;;;;;;5.07;3.15;;;;;;;;;;4956159;28;20112;-65
2022/10/10 14:18:45;;;;;;;5.00;3.40;;;;;;;;;;4956214;28;20098;-71
2022/10/10 14:21:12;;;;;;;5.75;3.47;;;;;;;;;;4956650;28;20027;-67
2022/10/10 14:23:39;;;;;;;4.85;3.40;;;;;;;;;;4956078;28;20402;-64
2022/10/10 14:26:11;;;;;;;6.43;3.70;;;;;;;;;;4957302;28;20050;-65
2022/10/10 14:28:38;;;;;;;7.30;3.72;;;;;;;;;;4955883;28;20023;-73
2022/10/10 14:31:04;;;;;;;5.57;3.55;;;;;;;;;;4965745;28;20042;-64
2022/10/10 14:33:30;;;;;;;6.15;3.95;;;;;;;;;;4974155;28;20118;-63
2022/10/10 14:35:58;;;;;;;8.43;4.25;;;;;;;;;;4957751;28;20441;-66
2022/10/10 14:38:24;;;;;;;6.68;4.78;;;;;;;;;;4956811;28;20035;-69
2022/10/10 14:40:51;;;;;;;9.82;4.45;;;;;;;;;;4956940;28;20086;-63
2022/10/10 14:43:19;;;;;;;5.28;4.38;;;;;;;;;;4969303;28;20126;-63
2022/10/10 14:45:47;;;;;;;6.53;3.97;;;;;;;;;;4974214;28;20092;-63
2022/10/10 14:48:13;;;;;;;9.20;4.30;;;;;;;;;;4975154;28;20053;-64
2022/10/10 14:50:43;;;;;;;8.13;4.35;;;;;;;;;;4974038;28;20354;-63
2022/10/10 14:53:09;;;;;;;7.00;3.83;;;;;;;;;;4974213;28;20035;-63
2022/10/10 14:55:35;;;;;;;8.73;4.35;;;;;;;;;;4975023;28;20031;-63
2022/10/10 14:58:02;;;;;;;5.13;3.50;;;;;;;;;;4972119;28;20555;-69